sensor_id;sensor_type;location;lat;lon;timestamp;P1;durP1;ratioP1;P2;durP2;ratioP2
5951;SDS011;3001;42.622;23.194;2023-03-26T00:00:59;1.03;;;1.03;;
5951;SDS011;3001;42.622;23.194;2023-03-26T00:03:26;0.50;;;0.50;;
5951;SDS011;3001;42.622;23.194;2023-03-26T00:06:00;0.50;;;0.50;;
5951;SDS011;3001;42.622;23.194;2023-03-26T00:08:28;0.63;;;0.60;;
5951;SDS011;3001;42.622;23.194;2023-03-26T00:10:55;0.40;;;0.40;;
5951;SDS011;3001;42.622;23.194;2023-03-26T00:13:23;0.53;;;0.53;;
5951;SDS011;3001;42.622;23.194;2023-03-26T00:15:49;0.50;;;0.50;;
5951;SDS011;3001;42.622;23.194;2023-03-26T00:18:16;2.43;;;0.50;;
5951;SDS011;3001;42.622;23.194;2023-03-26T00:20:45;0.47;;;0.47;;
5951;SDS011;3001;42.622;23.194;2023-03-26T00:23:12;0.40;;;0.40;;
5951;SDS011;3001;42.622;23.194;2023-03-26T00:25:39;0.53;;;0.53;;
5951;SDS011;3001;42.622;23.194;2023-03-26T00:28:07;0.67;;;0.67;;
5951;SDS011;3001;42.622;23.194;2023-03-26T00:30:36;0.50;;;0.50;;
5951;SDS011;3001;42.622;23.194;2023-03-26T00:33:05;0.40;;;0.40;;
5951;SDS011;3001;42.622;23.194;2023-03-26T00:35:36;0.50;;;0.50;;
5951;SDS011;3001;42.622;23.194;2023-03-26T00:38:03;3.23;;;0.70;;
5951;SDS011;3001;42.622;23.194;2023-03-26T00:40:29;0.50;;;0.50;;
5951;SDS011;3001;42.622;23.194;2023-03-26T00:43:00;0.60;;;0.60;;
5951;SDS011;3001;42.622;23.194;2023-03-26T00:45:34;1.30;;;0.50;;
5951;SDS011;3001;42.622;23.194;2023-03-26T00:48:02;0.70;;;0.70;;
5951;SDS011;3001;42.622;23.194;2023-03-26T00:50:29;1.33;;;0.80;;
5951;SDS011;3001;42.622;23.194;2023-03-26T00:52:55;0.70;;;0.70;;
5951;SDS011;3001;42.622;23.194;2023-03-26T00:55:22;0.90;;;0.90;;
5951;SDS011;3001;42.622;23.194;2023-03-26T00:57:49;0.73;;;0.73;;
5951;SDS011;3001;42.622;23.194;2023-03-26T01:00:16;1.13;;;0.63;;
5951;SDS011;3001;42.622;23.194;2023-03-26T01:02:44;1.90;;;0.80;;
5951;SDS011;3001;42.622;23.194;2023-03-26T01:08:16;0.80;;;0.80;;
5951;SDS011;3001;42.622;23.194;2023-03-26T01:10:47;0.93;;;0.93;;
5951;SDS011;3001;42.622;23.194;2023-03-26T01:13:16;1.13;;;0.90;;
5951;SDS011;3001;42.622;23.194;2023-03-26T01:15:44;0.80;;;0.80;;
5951;SDS011;3001;42.622;23.194;2023-03-26T01:18:14;0.63;;;0.63;;
5951;SDS011;3001;42.622;23.194;2023-03-26T01:20:45;1.00;;;1.00;;
5951;SDS011;3001;42.622;23.194;2023-03-26T01:23:16;0.80;;;0.80;;
5951;SDS011;3001;42.622;23.194;2023-03-26T01:25:49;1.00;;;1.00;;
5951;SDS011;3001;42.622;23.194;2023-03-26T01:28:23;1.10;;;1.10;;
5951;SDS011;3001;42.622;23.194;2023-03-26T01:30:54;1.10;;;1.10;;
5951;SDS011;3001;42.622;23.194;2023-03-26T01:33:29;1.57;;;0.90;;
5951;SDS011;3001;42.622;23.194;2023-03-26T01:36:08;1.07;;;1.07;;
5951;SDS011;3001;42.622;23.194;2023-03-26T01:38:44;1.10;;;1.10;;
5951;SDS011;3001;42.622;23.194;2023-03-26T01:41:17;1.27;;;1.20;;
5951;SDS011;3001;42.622;23.194;2023-03-26T01:43:51;1.13;;;1.13;;
5951;SDS011;3001;42.622;23.194;2023-03-26T01:46:23;1.13;;;1.00;;
5951;SDS011;3001;42.622;23.194;2023-03-26T01:48:51;0.80;;;0.80;;
5951;SDS011;3001;42.622;23.194;2023-03-26T01:51:27;1.37;;;1.10;;
5951;SDS011;3001;42.622;23.194;2023-03-26T01:53:56;0.80;;;0.80;;
5951;SDS011;3001;42.622;23.194;2023-03-26T01:56:26;0.90;;;0.90;;
5951;SDS011;3001;42.622;23.194;2023-03-26T01:59:12;1.07;;;1.07;;
5951;SDS011;3001;42.622;23.194;2023-03-26T02:01:50;1.10;;;1.10;;
5951;SDS011;3001;42.622;23.194;2023-03-26T02:04:25;1.07;;;0.90;;
5951;SDS011;3001;42.622;23.194;2023-03-26T02:07:01;1.20;;;1.20;;
5951;SDS011;3001;42.622;23.194;2023-03-26T02:09:33;1.00;;;1.00;;
5951;SDS011;3001;42.622;23.194;2023-03-26T02:12:07;1.00;;;1.00;;
5951;SDS011;3001;42.622;23.194;2023-03-26T02:14:35;1.03;;;1.03;;
5951;SDS011;3001;42.622;23.194;2023-03-26T02:17:01;1.13;;;1.13;;
5951;SDS011;3001;42.622;23.194;2023-03-26T02:19:28;1.20;;;1.20;;
5951;SDS011;3001;42.622;23.194;2023-03-26T02:21:55;1.10;;;1.10;;
5951;SDS011;3001;42.622;23.194;2023-03-26T02:24:24;1.20;;;1.20;;
5951;SDS011;3001;42.622;23.194;2023-03-26T02:26:51;3.37;;;1.13;;
5951;SDS011;3001;42.622;23.194;2023-03-26T02:29:19;1.00;;;1.00;;
5951;SDS011;3001;42.622;23.194;2023-03-26T02:31:46;0.97;;;0.97;;
5951;SDS011;3001;42.622;23.194;2023-03-26T02:34:14;0.90;;;0.90;;
5951;SDS011;3001;42.622;23.194;2023-03-26T02:36:40;1.37;;;1.30;;
5951;SDS011;3001;42.622;23.194;2023-03-26T02:39:07;1.10;;;1.10;;
5951;SDS011;3001;42.622;23.194;2023-03-26T02:41:35;1.30;;;1.30;;
5951;SDS011;3001;42.622;23.194;2023-03-26T02:44:03;1.50;;;1.50;;
5951;SDS011;3001;42.622;23.194;2023-03-26T02:46:31;1.20;;;1.20;;
5951;SDS011;3001;42.622;23.194;2023-03-26T02:48:58;1.27;;;1.27;;
5951;SDS011;3001;42.622;23.194;2023-03-26T02:51:25;1.27;;;1.27;;
5951;SDS011;3001;42.622;23.194;2023-03-26T02:53:52;1.47;;;1.47;;
5951;SDS011;3001;42.622;23.194;2023-03-26T02:56:19;1.40;;;1.40;;
5951;SDS011;3001;42.622;23.194;2023-03-26T02:58:46;1.20;;;1.20;;
5951;SDS011;3001;42.622;23.194;2023-03-26T03:01:13;1.40;;;1.40;;
5951;SDS011;3001;42.622;23.194;2023-03-26T03:03:43;2.67;;;1.10;;
5951;SDS011;3001;42.622;23.194;2023-03-26T03:06:11;1.10;;;1.10;;
5951;SDS011;3001;42.622;23.194;2023-03-26T03:08:38;1.10;;;1.10;;
5951;SDS011;3001;42.622;23.194;2023-03-26T03:11:06;1.20;;;1.20;;
5951;SDS011;3001;42.622;23.194;2023-03-26T03:13:35;1.00;;;1.00;;
5951;SDS011;3001;42.622;23.194;2023-03-26T03:16:02;1.10;;;1.10;;
5951;SDS011;3001;42.622;23.194;2023-03-26T03:18:29;1.03;;;1.03;;
5951;SDS011;3001;42.622;23.194;2023-03-26T03:20:57;1.17;;;1.17;;
5951;SDS011;3001;42.622;23.194;2023-03-26T03:23:24;1.10;;;1.10;;
5951;SDS011;3001;42.622;23.194;2023-03-26T03:25:51;1.70;;;1.70;;
5951;SDS011;3001;42.622;23.194;2023-03-26T03:28:21;1.40;;;1.40;;
5951;SDS011;3001;42.622;23.194;2023-03-26T03:30:48;1.80;;;1.70;;
5951;SDS011;3001;42.622;23.194;2023-03-26T03:33:17;2.00;;;1.90;;
5951;SDS011;3001;42.622;23.194;2023-03-26T03:35:44;1.90;;;1.80;;
5951;SDS011;3001;42.622;23.194;2023-03-26T03:38:13;2.00;;;1.90;;
5951;SDS011;3001;42.622;23.194;2023-03-26T03:40:40;1.40;;;1.40;;
5951;SDS011;3001;42.622;23.194;2023-03-26T03:43:07;1.40;;;1.40;;
5951;SDS011;3001;42.622;23.194;2023-03-26T03:45:33;2.20;;;2.10;;
5951;SDS011;3001;42.622;23.194;2023-03-26T03:48:00;2.17;;;1.97;;
5951;SDS011;3001;42.622;23.194;2023-03-26T03:50:27;1.97;;;1.87;;
5951;SDS011;3001;42.622;23.194;2023-03-26T03:52:53;2.40;;;2.30;;
5951;SDS011;3001;42.622;23.194;2023-03-26T03:55:24;2.43;;;2.33;;
5951;SDS011;3001;42.622;23.194;2023-03-26T03:57:52;2.60;;;2.50;;
5951;SDS011;3001;42.622;23.194;2023-03-26T04:00:18;3.00;;;2.87;;
5951;SDS011;3001;42.622;23.194;2023-03-26T04:02:46;2.73;;;2.63;;
5951;SDS011;3001;42.622;23.194;2023-03-26T04:05:13;2.43;;;2.33;;
5951;SDS011;3001;42.622;23.194;2023-03-26T04:07:40;3.20;;;2.53;;
5951;SDS011;3001;42.622;23.194;2023-03-26T04:10:07;2.70;;;2.60;;
5951;SDS011;3001;42.622;23.194;2023-03-26T04:12:36;2.53;;;2.43;;
5951;SDS011;3001;42.622;23.194;2023-03-26T04:15:03;2.30;;;2.20;;
5951;SDS011;3001;42.622;23.194;2023-03-26T04:17:30;3.57;;;3.23;;
5951;SDS011;3001;42.622;23.194;2023-03-26T04:19:57;5.93;;;5.53;;
5951;SDS011;3001;42.622;23.194;2023-03-26T04:22:29;3.17;;;2.90;;
5951;SDS011;3001;42.622;23.194;2023-03-26T04:24:58;2.57;;;2.47;;
5951;SDS011;3001;42.622;23.194;2023-03-26T04:27:27;3.60;;;3.40;;
5951;SDS011;3001;42.622;23.194;2023-03-26T04:29:58;3.27;;;3.10;;
5951;SDS011;3001;42.622;23.194;2023-03-26T04:32:27;3.33;;;3.13;;
5951;SDS011;3001;42.622;23.194;2023-03-26T04:34:58;4.63;;;4.43;;
5951;SDS011;3001;42.622;23.194;2023-03-26T04:37:28;3.40;;;3.10;;
5951;SDS011;3001;42.622;23.194;2023-03-26T04:39:58;3.30;;;3.00;;
5951;SDS011;3001;42.622;23.194;2023-03-26T04:42:26;2.80;;;2.70;;
5951;SDS011;3001;42.622;23.194;2023-03-26T04:44:53;3.17;;;2.97;;
5951;SDS011;3001;42.622;23.194;2023-03-26T04:47:21;3.07;;;2.97;;
5951;SDS011;3001;42.622;23.194;2023-03-26T04:49:48;3.87;;;3.67;;
5951;SDS011;3001;42.622;23.194;2023-03-26T04:52:15;3.53;;;3.33;;
5951;SDS011;3001;42.622;23.194;2023-03-26T04:54:42;3.80;;;3.60;;
5951;SDS011;3001;42.622;23.194;2023-03-26T04:57:11;4.17;;;3.97;;
5951;SDS011;3001;42.622;23.194;2023-03-26T04:59:42;5.13;;;4.83;;
5951;SDS011;3001;42.622;23.194;2023-03-26T05:02:09;4.20;;;4.00;;
5951;SDS011;3001;42.622;23.194;2023-03-26T05:04:38;5.30;;;5.00;;
5951;SDS011;3001;42.622;23.194;2023-03-26T05:07:05;4.77;;;4.47;;
5951;SDS011;3001;42.622;23.194;2023-03-26T05:09:33;4.20;;;4.00;;
5951;SDS011;3001;42.622;23.194;2023-03-26T05:12:00;5.07;;;4.77;;
5951;SDS011;3001;42.622;23.194;2023-03-26T05:14:27;4.80;;;4.40;;
5951;SDS011;3001;42.622;23.194;2023-03-26T05:16:54;4.87;;;4.57;;
5951;SDS011;3001;42.622;23.194;2023-03-26T05:19:21;4.70;;;4.40;;
5951;SDS011;3001;42.622;23.194;2023-03-26T05:21:49;5.03;;;4.83;;
5951;SDS011;3001;42.622;23.194;2023-03-26T05:24:16;4.50;;;4.20;;
5951;SDS011;3001;42.622;23.194;2023-03-26T05:26:43;5.13;;;4.63;;
5951;SDS011;3001;42.622;23.194;2023-03-26T05:29:10;4.17;;;3.97;;
5951;SDS011;3001;42.622;23.194;2023-03-26T05:31:37;4.73;;;4.43;;
5951;SDS011;3001;42.622;23.194;2023-03-26T05:34:04;4.97;;;4.67;;
5951;SDS011;3001;42.622;23.194;2023-03-26T05:36:31;5.40;;;5.10;;
5951;SDS011;3001;42.622;23.194;2023-03-26T05:38:59;5.47;;;5.07;;
5951;SDS011;3001;42.622;23.194;2023-03-26T05:41:26;5.90;;;5.50;;
5951;SDS011;3001;42.622;23.194;2023-03-26T05:43:52;6.00;;;5.60;;
5951;SDS011;3001;42.622;23.194;2023-03-26T05:46:20;6.77;;;6.27;;
5951;SDS011;3001;42.622;23.194;2023-03-26T05:48:47;7.20;;;6.60;;
5951;SDS011;3001;42.622;23.194;2023-03-26T05:51:14;6.37;;;5.77;;
5951;SDS011;3001;42.622;23.194;2023-03-26T05:53:41;5.23;;;4.93;;
5951;SDS011;3001;42.622;23.194;2023-03-26T05:56:09;10.70;;;7.93;;
5951;SDS011;3001;42.622;23.194;2023-03-26T05:58:36;11.00;;;8.60;;
5951;SDS011;3001;42.622;23.194;2023-03-26T06:01:04;6.07;;;5.47;;
5951;SDS011;3001;42.622;23.194;2023-03-26T06:03:33;6.10;;;5.70;;
5951;SDS011;3001;42.622;23.194;2023-03-26T06:06:00;5.93;;;5.53;;
5951;SDS011;3001;42.622;23.194;2023-03-26T06:08:29;5.70;;;5.40;;
5951;SDS011;3001;42.622;23.194;2023-03-26T06:10:59;5.37;;;4.97;;
5951;SDS011;3001;42.622;23.194;2023-03-26T06:13:28;5.07;;;4.77;;
5951;SDS011;3001;42.622;23.194;2023-03-26T06:15:55;4.83;;;4.53;;
5951;SDS011;3001;42.622;23.194;2023-03-26T06:18:22;5.03;;;4.70;;
5951;SDS011;3001;42.622;23.194;2023-03-26T06:20:50;5.17;;;4.83;;
5951;SDS011;3001;42.622;23.194;2023-03-26T06:23:17;6.10;;;5.53;;
5951;SDS011;3001;42.622;23.194;2023-03-26T06:25:43;6.40;;;5.53;;
5951;SDS011;3001;42.622;23.194;2023-03-26T06:28:12;5.40;;;5.10;;
5951;SDS011;3001;42.622;23.194;2023-03-26T06:30:40;5.53;;;5.17;;
5951;SDS011;3001;42.622;23.194;2023-03-26T06:33:08;5.60;;;5.20;;
5951;SDS011;3001;42.622;23.194;2023-03-26T06:35:35;5.47;;;5.17;;
5951;SDS011;3001;42.622;23.194;2023-03-26T06:38:01;6.23;;;5.83;;
5951;SDS011;3001;42.622;23.194;2023-03-26T06:40:28;5.50;;;5.20;;
5951;SDS011;3001;42.622;23.194;2023-03-26T06:42:55;5.23;;;4.93;;
5951;SDS011;3001;42.622;23.194;2023-03-26T06:45:22;5.60;;;5.17;;
5951;SDS011;3001;42.622;23.194;2023-03-26T06:47:50;5.43;;;5.00;;
5951;SDS011;3001;42.622;23.194;2023-03-26T06:50:16;5.17;;;4.87;;
5951;SDS011;3001;42.622;23.194;2023-03-26T06:52:43;4.97;;;4.63;;
5951;SDS011;3001;42.622;23.194;2023-03-26T06:55:10;5.80;;;5.50;;
5951;SDS011;3001;42.622;23.194;2023-03-26T06:57:38;6.33;;;5.87;;
5951;SDS011;3001;42.622;23.194;2023-03-26T07:00:05;7.03;;;6.47;;
5951;SDS011;3001;42.622;23.194;2023-03-26T07:02:32;6.10;;;5.70;;
5951;SDS011;3001;42.622;23.194;2023-03-26T07:05:00;5.27;;;4.90;;
5951;SDS011;3001;42.622;23.194;2023-03-26T07:07:27;4.77;;;4.57;;
5951;SDS011;3001;42.622;23.194;2023-03-26T07:09:54;4.13;;;3.93;;
5951;SDS011;3001;42.622;23.194;2023-03-26T07:12:20;4.43;;;4.13;;
5951;SDS011;3001;42.622;23.194;2023-03-26T07:14:47;4.70;;;4.50;;
5951;SDS011;3001;42.622;23.194;2023-03-26T07:17:14;4.70;;;4.50;;
5951;SDS011;3001;42.622;23.194;2023-03-26T07:19:40;4.47;;;4.20;;
5951;SDS011;3001;42.622;23.194;2023-03-26T07:22:09;4.60;;;4.30;;
5951;SDS011;3001;42.622;23.194;2023-03-26T07:24:41;5.27;;;4.87;;
5951;SDS011;3001;42.622;23.194;2023-03-26T07:27:09;5.13;;;4.73;;
5951;SDS011;3001;42.622;23.194;2023-03-26T07:29:46;5.67;;;5.37;;
5951;SDS011;3001;42.622;23.194;2023-03-26T07:32:18;5.50;;;5.10;;
5951;SDS011;3001;42.622;23.194;2023-03-26T07:34:54;5.03;;;4.83;;
5951;SDS011;3001;42.622;23.194;2023-03-26T07:37:31;5.00;;;4.80;;
5951;SDS011;3001;42.622;23.194;2023-03-26T07:40:07;4.93;;;4.63;;
5951;SDS011;3001;42.622;23.194;2023-03-26T07:42:44;4.30;;;4.10;;
5951;SDS011;3001;42.622;23.194;2023-03-26T07:45:22;5.13;;;4.83;;
5951;SDS011;3001;42.622;23.194;2023-03-26T07:47:58;4.40;;;4.20;;
5951;SDS011;3001;42.622;23.194;2023-03-26T07:50:25;5.67;;;5.37;;
5951;SDS011;3001;42.622;23.194;2023-03-26T07:52:53;5.07;;;4.77;;
5951;SDS011;3001;42.622;23.194;2023-03-26T07:55:21;4.77;;;4.57;;
5951;SDS011;3001;42.622;23.194;2023-03-26T07:57:52;4.67;;;4.27;;
5951;SDS011;3001;42.622;23.194;2023-03-26T08:00:25;4.47;;;4.23;;
5951;SDS011;3001;42.622;23.194;2023-03-26T08:03:10;4.70;;;4.40;;
5951;SDS011;3001;42.622;23.194;2023-03-26T08:05:47;4.13;;;3.93;;
5951;SDS011;3001;42.622;23.194;2023-03-26T08:08:22;4.40;;;4.20;;
5951;SDS011;3001;42.622;23.194;2023-03-26T08:11:00;4.17;;;3.97;;
5951;SDS011;3001;42.622;23.194;2023-03-26T08:13:37;3.80;;;3.60;;
5951;SDS011;3001;42.622;23.194;2023-03-26T08:16:14;3.70;;;3.50;;
5951;SDS011;3001;42.622;23.194;2023-03-26T08:18:45;3.60;;;3.40;;
5951;SDS011;3001;42.622;23.194;2023-03-26T08:21:22;3.87;;;3.67;;
5951;SDS011;3001;42.622;23.194;2023-03-26T08:23:57;3.40;;;3.17;;
5951;SDS011;3001;42.622;23.194;2023-03-26T08:26:31;3.77;;;3.57;;
5951;SDS011;3001;42.622;23.194;2023-03-26T08:29:06;3.23;;;3.10;;
5951;SDS011;3001;42.622;23.194;2023-03-26T08:31:40;3.30;;;3.10;;
5951;SDS011;3001;42.622;23.194;2023-03-26T08:34:10;3.60;;;3.40;;
5951;SDS011;3001;42.622;23.194;2023-03-26T08:36:37;3.20;;;3.00;;
5951;SDS011;3001;42.622;23.194;2023-03-26T08:39:05;2.70;;;2.60;;
5951;SDS011;3001;42.622;23.194;2023-03-26T08:41:43;3.33;;;3.17;;
5951;SDS011;3001;42.622;23.194;2023-03-26T08:50:46;4.83;;;4.43;;
5951;SDS011;3001;42.622;23.194;2023-03-26T08:53:33;3.90;;;3.70;;
5951;SDS011;3001;42.622;23.194;2023-03-26T08:56:13;4.50;;;4.20;;
5951;SDS011;3001;42.622;23.194;2023-03-26T08:58:56;3.37;;;3.17;;
5951;SDS011;3001;42.622;23.194;2023-03-26T09:02:00;5.60;;;5.20;;
5951;SDS011;3001;42.622;23.194;2023-03-26T09:05:08;5.73;;;3.80;;
5951;SDS011;3001;42.622;23.194;2023-03-26T09:14:40;1.80;;;1.70;;
5951;SDS011;3001;42.622;23.194;2023-03-26T09:17:31;8.60;;;7.43;;
5951;SDS011;3001;42.622;23.194;2023-03-26T09:26:35;1.40;;;1.40;;
5951;SDS011;3001;42.622;23.194;2023-03-26T09:29:20;1.60;;;1.50;;
5951;SDS011;3001;42.622;23.194;2023-03-26T09:32:22;3.37;;;3.07;;
5951;SDS011;3001;42.622;23.194;2023-03-26T09:35:10;1.70;;;1.60;;
5951;SDS011;3001;42.622;23.194;2023-03-26T09:37:45;1.50;;;1.40;;
5951;SDS011;3001;42.622;23.194;2023-03-26T09:40:20;3.23;;;2.97;;
5951;SDS011;3001;42.622;23.194;2023-03-26T09:42:55;2.33;;;1.20;;
5951;SDS011;3001;42.622;23.194;2023-03-26T09:45:48;1.23;;;1.20;;
5951;SDS011;3001;42.622;23.194;2023-03-26T09:48:31;0.90;;;0.90;;
5951;SDS011;3001;42.622;23.194;2023-03-26T09:54:25;1.33;;;1.30;;
5951;SDS011;3001;42.622;23.194;2023-03-26T09:57:12;1.80;;;1.70;;
5951;SDS011;3001;42.622;23.194;2023-03-26T09:59:56;1.97;;;1.87;;
5951;SDS011;3001;42.622;23.194;2023-03-26T10:02:37;0.90;;;0.80;;
5951;SDS011;3001;42.622;23.194;2023-03-26T10:05:23;2.03;;;1.93;;
5951;SDS011;3001;42.622;23.194;2023-03-26T10:08:09;1.10;;;1.10;;
5951;SDS011;3001;42.622;23.194;2023-03-26T10:10:52;2.00;;;1.90;;
5951;SDS011;3001;42.622;23.194;2023-03-26T10:13:25;1.47;;;1.30;;
5951;SDS011;3001;42.622;23.194;2023-03-26T10:16:00;1.60;;;1.50;;
5951;SDS011;3001;42.622;23.194;2023-03-26T10:18:36;1.30;;;1.03;;
5951;SDS011;3001;42.622;23.194;2023-03-26T10:21:17;0.80;;;0.80;;
5951;SDS011;3001;42.622;23.194;2023-03-26T10:23:59;0.77;;;0.70;;
5951;SDS011;3001;42.622;23.194;2023-03-26T10:26:38;1.13;;;0.90;;
5951;SDS011;3001;42.622;23.194;2023-03-26T10:29:17;0.70;;;0.70;;
5951;SDS011;3001;42.622;23.194;2023-03-26T10:32:03;0.87;;;0.87;;
5951;SDS011;3001;42.622;23.194;2023-03-26T10:34:56;0.70;;;0.70;;
5951;SDS011;3001;42.622;23.194;2023-03-26T10:37:37;2.20;;;1.97;;
5951;SDS011;3001;42.622;23.194;2023-03-26T10:40:19;2.60;;;1.47;;
5951;SDS011;3001;42.622;23.194;2023-03-26T10:46:11;0.90;;;0.90;;
5951;SDS011;3001;42.622;23.194;2023-03-26T10:48:53;1.33;;;1.33;;
5951;SDS011;3001;42.622;23.194;2023-03-26T10:51:39;1.17;;;0.77;;
5951;SDS011;3001;42.622;23.194;2023-03-26T10:54:19;1.30;;;1.20;;
5951;SDS011;3001;42.622;23.194;2023-03-26T10:56:52;0.63;;;0.63;;
5951;SDS011;3001;42.622;23.194;2023-03-26T10:59:20;0.77;;;0.70;;
5951;SDS011;3001;42.622;23.194;2023-03-26T11:01:51;0.70;;;0.70;;
5951;SDS011;3001;42.622;23.194;2023-03-26T11:04:29;0.70;;;0.70;;
5951;SDS011;3001;42.622;23.194;2023-03-26T11:07:09;0.83;;;0.83;;
5951;SDS011;3001;42.622;23.194;2023-03-26T11:09:46;0.80;;;0.80;;
5951;SDS011;3001;42.622;23.194;2023-03-26T11:12:21;1.47;;;1.37;;
5951;SDS011;3001;42.622;23.194;2023-03-26T11:14:57;2.77;;;2.67;;
5951;SDS011;3001;42.622;23.194;2023-03-26T11:17:38;0.90;;;0.90;;
5951;SDS011;3001;42.622;23.194;2023-03-26T11:20:15;2.40;;;2.17;;
5951;SDS011;3001;42.622;23.194;2023-03-26T11:22:49;0.60;;;0.60;;
5951;SDS011;3001;42.622;23.194;2023-03-26T11:25:34;0.40;;;0.40;;
5951;SDS011;3001;42.622;23.194;2023-03-26T11:31:03;0.60;;;0.60;;
5951;SDS011;3001;42.622;23.194;2023-03-26T11:33:40;0.70;;;0.70;;
5951;SDS011;3001;42.622;23.194;2023-03-26T11:36:12;0.97;;;0.97;;
5951;SDS011;3001;42.622;23.194;2023-03-26T11:38:42;0.60;;;0.60;;
5951;SDS011;3001;42.622;23.194;2023-03-26T11:41:13;0.90;;;0.90;;
5951;SDS011;3001;42.622;23.194;2023-03-26T11:43:43;0.80;;;0.80;;
5951;SDS011;3001;42.622;23.194;2023-03-26T11:46:16;0.70;;;0.70;;
5951;SDS011;3001;42.622;23.194;2023-03-26T11:48:45;0.80;;;0.80;;
5951;SDS011;3001;42.622;23.194;2023-03-26T11:51:17;0.83;;;0.83;;
5951;SDS011;3001;42.622;23.194;2023-03-26T11:53:48;0.67;;;0.67;;
5951;SDS011;3001;42.622;23.194;2023-03-26T11:56:18;0.90;;;0.90;;
5951;SDS011;3001;42.622;23.194;2023-03-26T11:58:53;21.20;;;15.27;;
5951;SDS011;3001;42.622;23.194;2023-03-26T12:01:26;5.33;;;4.93;;
5951;SDS011;3001;42.622;23.194;2023-03-26T12:03:55;1.37;;;1.37;;
5951;SDS011;3001;42.622;23.194;2023-03-26T12:06:24;0.90;;;0.90;;
5951;SDS011;3001;42.622;23.194;2023-03-26T12:08:53;0.90;;;0.90;;
5951;SDS011;3001;42.622;23.194;2023-03-26T12:11:23;1.30;;;0.60;;
5951;SDS011;3001;42.622;23.194;2023-03-26T12:13:53;2.23;;;2.13;;
5951;SDS011;3001;42.622;23.194;2023-03-26T12:16:23;1.87;;;1.77;;
5951;SDS011;3001;42.622;23.194;2023-03-26T12:18:57;2.07;;;1.97;;
5951;SDS011;3001;42.622;23.194;2023-03-26T12:21:25;0.87;;;0.87;;
5951;SDS011;3001;42.622;23.194;2023-03-26T12:23:56;0.90;;;0.90;;
5951;SDS011;3001;42.622;23.194;2023-03-26T12:26:29;1.07;;;1.07;;
5951;SDS011;3001;42.622;23.194;2023-03-26T12:29:03;1.23;;;1.23;;
5951;SDS011;3001;42.622;23.194;2023-03-26T12:31:39;1.17;;;1.17;;
5951;SDS011;3001;42.622;23.194;2023-03-26T12:34:14;0.90;;;0.90;;
5951;SDS011;3001;42.622;23.194;2023-03-26T12:36:46;1.00;;;1.00;;
5951;SDS011;3001;42.622;23.194;2023-03-26T12:39:25;0.80;;;0.60;;
5951;SDS011;3001;42.622;23.194;2023-03-26T12:41:59;4.13;;;3.83;;
5951;SDS011;3001;42.622;23.194;2023-03-26T12:44:27;1.27;;;1.20;;
5951;SDS011;3001;42.622;23.194;2023-03-26T12:47:05;0.80;;;0.80;;
5951;SDS011;3001;42.622;23.194;2023-03-26T12:49:34;0.70;;;0.47;;
5951;SDS011;3001;42.622;23.194;2023-03-26T12:52:07;1.97;;;1.90;;
5951;SDS011;3001;42.622;23.194;2023-03-26T12:54:43;0.70;;;0.70;;
5951;SDS011;3001;42.622;23.194;2023-03-26T12:57:18;0.80;;;0.80;;
5951;SDS011;3001;42.622;23.194;2023-03-26T13:02:48;1.03;;;0.80;;
5951;SDS011;3001;42.622;23.194;2023-03-26T13:05:30;1.80;;;0.80;;
5951;SDS011;3001;42.622;23.194;2023-03-26T13:08:18;1.70;;;1.30;;
5951;SDS011;3001;42.622;23.194;2023-03-26T13:11:07;0.70;;;0.70;;
5951;SDS011;3001;42.622;23.194;2023-03-26T13:16:33;0.47;;;0.47;;
5951;SDS011;3001;42.622;23.194;2023-03-26T13:19:07;0.70;;;0.70;;
5951;SDS011;3001;42.622;23.194;2023-03-26T13:21:52;0.70;;;0.70;;
5951;SDS011;3001;42.622;23.194;2023-03-26T13:24:28;1.70;;;0.50;;
5951;SDS011;3001;42.622;23.194;2023-03-26T13:27:09;0.50;;;0.50;;
5951;SDS011;3001;42.622;23.194;2023-03-26T13:29:50;0.60;;;0.60;;
5951;SDS011;3001;42.622;23.194;2023-03-26T13:32:24;0.50;;;0.50;;
5951;SDS011;3001;42.622;23.194;2023-03-26T13:35:07;0.57;;;0.40;;
5951;SDS011;3001;42.622;23.194;2023-03-26T13:37:45;0.67;;;0.67;;
5951;SDS011;3001;42.622;23.194;2023-03-26T13:40:21;0.37;;;0.37;;
5951;SDS011;3001;42.622;23.194;2023-03-26T13:43:02;0.40;;;0.40;;
5951;SDS011;3001;42.622;23.194;2023-03-26T13:45:44;0.50;;;0.50;;
5951;SDS011;3001;42.622;23.194;2023-03-26T13:48:19;0.43;;;0.43;;
5951;SDS011;3001;42.622;23.194;2023-03-26T13:50:52;1.07;;;0.50;;
5951;SDS011;3001;42.622;23.194;2023-03-26T13:53:26;0.70;;;0.70;;
5951;SDS011;3001;42.622;23.194;2023-03-26T13:55:58;0.50;;;0.50;;
5951;SDS011;3001;42.622;23.194;2023-03-26T13:58:29;0.40;;;0.40;;
5951;SDS011;3001;42.622;23.194;2023-03-26T14:01:02;0.50;;;0.50;;
5951;SDS011;3001;42.622;23.194;2023-03-26T14:03:35;0.60;;;0.60;;
5951;SDS011;3001;42.622;23.194;2023-03-26T14:06:13;1.17;;;1.07;;
5951;SDS011;3001;42.622;23.194;2023-03-26T14:08:50;0.50;;;0.50;;
5951;SDS011;3001;42.622;23.194;2023-03-26T14:11:22;0.60;;;0.60;;
5951;SDS011;3001;42.622;23.194;2023-03-26T14:13:59;0.40;;;0.40;;
5951;SDS011;3001;42.622;23.194;2023-03-26T14:16:33;0.90;;;0.90;;
5951;SDS011;3001;42.622;23.194;2023-03-26T14:19:10;0.70;;;0.70;;
5951;SDS011;3001;42.622;23.194;2023-03-26T14:21:54;1.67;;;1.07;;
5951;SDS011;3001;42.622;23.194;2023-03-26T14:24:34;1.47;;;0.50;;
5951;SDS011;3001;42.622;23.194;2023-03-26T14:27:26;0.83;;;0.50;;
5951;SDS011;3001;42.622;23.194;2023-03-26T14:30:16;1.40;;;0.83;;
5951;SDS011;3001;42.622;23.194;2023-03-26T14:33:00;0.77;;;0.77;;
5951;SDS011;3001;42.622;23.194;2023-03-26T14:35:39;0.90;;;0.80;;
5951;SDS011;3001;42.622;23.194;2023-03-26T14:38:27;1.20;;;1.20;;
5951;SDS011;3001;42.622;23.194;2023-03-26T14:41:09;1.90;;;0.93;;
5951;SDS011;3001;42.622;23.194;2023-03-26T14:43:57;0.57;;;0.57;;
5951;SDS011;3001;42.622;23.194;2023-03-26T14:46:43;0.77;;;0.77;;
5951;SDS011;3001;42.622;23.194;2023-03-26T14:52:41;0.70;;;0.70;;
5951;SDS011;3001;42.622;23.194;2023-03-26T14:55:14;1.43;;;1.33;;
5951;SDS011;3001;42.622;23.194;2023-03-26T14:57:59;2.37;;;1.80;;
5951;SDS011;3001;42.622;23.194;2023-03-26T15:04:20;1.00;;;1.00;;
5951;SDS011;3001;42.622;23.194;2023-03-26T15:19:35;0.97;;;0.97;;
5951;SDS011;3001;42.622;23.194;2023-03-26T15:22:29;1.13;;;1.13;;
5951;SDS011;3001;42.622;23.194;2023-03-26T15:25:49;1.80;;;1.70;;
5951;SDS011;3001;42.622;23.194;2023-03-26T15:37:53;1.20;;;1.20;;
5951;SDS011;3001;42.622;23.194;2023-03-26T15:44:06;1.60;;;1.50;;
5951;SDS011;3001;42.622;23.194;2023-03-26T15:46:56;1.10;;;1.10;;
5951;SDS011;3001;42.622;23.194;2023-03-26T15:49:42;1.30;;;1.20;;
5951;SDS011;3001;42.622;23.194;2023-03-26T15:52:17;1.20;;;1.10;;
5951;SDS011;3001;42.622;23.194;2023-03-26T15:54:52;1.10;;;1.10;;
5951;SDS011;3001;42.622;23.194;2023-03-26T15:57:28;1.00;;;1.00;;
5951;SDS011;3001;42.622;23.194;2023-03-26T16:00:01;1.20;;;0.90;;
5951;SDS011;3001;42.622;23.194;2023-03-26T16:02:40;1.60;;;1.13;;
5951;SDS011;3001;42.622;23.194;2023-03-26T16:05:26;2.03;;;1.93;;
5951;SDS011;3001;42.622;23.194;2023-03-26T16:08:03;1.03;;;1.03;;
5951;SDS011;3001;42.622;23.194;2023-03-26T16:10:40;1.10;;;1.10;;
5951;SDS011;3001;42.622;23.194;2023-03-26T16:13:25;1.70;;;1.60;;
5951;SDS011;3001;42.622;23.194;2023-03-26T16:16:09;2.20;;;2.10;;
5951;SDS011;3001;42.622;23.194;2023-03-26T16:18:47;2.50;;;1.80;;
5951;SDS011;3001;42.622;23.194;2023-03-26T16:21:37;3.43;;;1.57;;
5951;SDS011;3001;42.622;23.194;2023-03-26T16:24:16;0.90;;;0.90;;
5951;SDS011;3001;42.622;23.194;2023-03-26T16:26:51;1.10;;;1.10;;
5951;SDS011;3001;42.622;23.194;2023-03-26T16:30:01;1.47;;;1.10;;
5951;SDS011;3001;42.622;23.194;2023-03-26T16:32:34;1.43;;;0.70;;
5951;SDS011;3001;42.622;23.194;2023-03-26T16:35:02;0.70;;;0.70;;
5951;SDS011;3001;42.622;23.194;2023-03-26T16:37:47;1.30;;;0.57;;
5951;SDS011;3001;42.622;23.194;2023-03-26T16:40:26;0.63;;;0.63;;
5951;SDS011;3001;42.622;23.194;2023-03-26T16:43:17;0.60;;;0.60;;
5951;SDS011;3001;42.622;23.194;2023-03-26T16:46:15;1.27;;;0.70;;
5951;SDS011;3001;42.622;23.194;2023-03-26T16:48:54;0.60;;;0.60;;